Çoğunlukla bulutlu
Parçalı bulutlu
Parçalı bulutlu
Parçalı bulutlu
Parçalı bulutlu
Parçalı bulutlu
Parçalı bulutlu
(°C)
14°
15°
15°
16°
16°
16°
15°
(°C)
13°
14°
14°
15°
16°
16°
15°
D
D
D
D
KD
K
KB
(km/saat)
5-10
5-11
6-12
5-10
4-7
4-6
4-8
(mm)
0
0
0
0
0
0
0
(%)
36
36
19
18
18
17
11

Güneşin açısı

/ 25.5°
sun-icon
UV 2
08:04
17:46
Hilal (161°)
16:33
06:24

Alcantarilla (LERI) için METAR

Zaman Koşullar Sıcaklık/
Çiy noktası
Rüzgar Görünürlük Hava Bulutlar Basınç Değiştir Ham
MVFR 14°C / 12°C variable 0kt >10km - Few Clouds 1600ft
Broken Clouds 2100ft
1016 No Significant change LERI 061000Z 00000KT 9999 FEW016 BKN021 14/12 Q1016 NOSIG
VFR 13°C / 12°C variable 0kt >10km - Few Clouds 1600ft
Scattered Clouds 2100ft
Broken Clouds 3800ft
1016 No Significant change LERI 060930Z 00000KT 9999 FEW016 SCT021 BKN038 13/12 Q1016 NOSIG
VFR 13°C / 12°C variable 0kt >10km - Few Clouds 1700ft
Scattered Clouds 2200ft
Broken Clouds 4200ft
1016 No Significant change LERI 060900Z 00000KT 9999 FEW017 SCT022 BKN042 13/12 Q1016 NOSIG
VFR 13°C / 12°C 270º 1kt 9000m Light Rain 1.00mm precipitation Vertical Visibility of 0ft.
Scattered Clouds 4200ft
Broken Clouds 5000ft
1015 No Significant change LERI 060830Z 27001KT 9000 -RA FEW018 SCT042 BKN050 13/12 Q1015 NOSIG
VFR 12°C / 12°C 300º 2kt 9000m Light Rain 1.00mm precipitation Vertical Visibility of 0ft.
Broken Clouds 5000ft
1015 No Significant change LERI 060800Z 30002KT 9000 -RA FEW017 BKN050 12/12 Q1015 NOSIG
VFR 12°C / 11°C variable 0kt 9000m Light Rain 1.00mm precipitation Vertical Visibility of 0ft.
Scattered Clouds 2400ft
Broken Clouds 5500ft
1015 No Significant change LERI 060700Z 00000KT 9000 -RA FEW018 SCT024 BKN055 12/11 Q1015 NOSIG
MVFR 12°C / 11°C variable 2kt 7000m Light Rain 1.00mm precipitation Vertical Visibility of 0ft.
Scattered Clouds 6000ft
1014 No Significant change LERI 060630Z VRB02KT 7000 -RA FEW020 SCT060 12/11 Q1014 NOSIG
MVFR 12°C / 12°C variable 1kt 7000m Rain 3.00mm precipitation Vertical Visibility of 0ft.
Broken Clouds 6400ft
1014 No Significant change LERI 060600Z VRB01KT 7000 RA FEW020 BKN064 12/12 Q1014 NOSIG
VFR 13°C / 10°C variable 0kt >10km - Few Clouds 2000ft 1014 No Significant change LERI 051800Z 00000KT 9999 FEW020 13/10 Q1014 NOSIG
VFR 14°C / 11°C variable 0kt >10km - Few Clouds 2400ft 1014 No Significant change LERI 051730Z 00000KT 9999 FEW024 14/11 Q1014 NOSIG
VFR 15°C / 11°C 80º 5kt >10km - Few Clouds 2400ft 1013 No Significant change LERI 051700Z 08005KT 9999 FEW024 15/11 Q1013 NOSIG
VFR 17°C / 11°C 90º 8kt >10km - Few Clouds 2400ft 1013 No Significant change LERI 051630Z 09008KT 9999 FEW024 17/11 Q1013 NOSIG
VFR 17°C / 12°C 90º 8kt >10km - Few Clouds 2800ft 1013 No Significant change LERI 051600Z 09008KT 9999 FEW028 17/12 Q1013 NOSIG
VFR 18°C / 11°C 70º 8kt >10km - Few Clouds 2800ft 1013 No Significant change LERI 051530Z 07008KT 9999 FEW028 18/11 Q1013 NOSIG
VFR 18°C / 11°C 70º 11kt >10km - Few Clouds 3000ft 1013 No Significant change LERI 051500Z 07011KT 9999 FEW030 18/11 Q1013 NOSIG
VFR 18°C / 10°C 80º 10kt >10km - Few Clouds 3500ft 1013 No Significant change LERI 051430Z 08010KT 9999 FEW035 18/10 Q1013 NOSIG
VFR 19°C / 10°C 90º variable 060º to 130º 7kt >10km - Few Clouds 3500ft 1013 No Significant change LERI 051400Z 09007KT 060V130 9999 FEW035 19/10 Q1013 NOSIG
VFR 19°C / 10°C 80º variable 050º to 120º 7kt >10km - Few Clouds 3800ft 1013 No Significant change LERI 051330Z 08007KT 050V120 9999 FEW038 19/10 Q1013 NOSIG
VFR 19°C / 10°C 90º variable 060º to 120º 9kt >10km - Few Clouds 3500ft 1013 No Significant change LERI 051300Z 09009KT 060V120 9999 FEW035 19/10 Q1013 NOSIG
VFR 18°C / 10°C 90º variable 040º to 130º 4kt >10km - Few Clouds 3300ft 1014 No Significant change LERI 051230Z 09004KT 040V130 9999 FEW033 18/10 Q1014 NOSIG
VFR 18°C / 10°C 90º variable 020º to 160º 3kt >10km - Few Clouds 2800ft 1015 No Significant change LERI 051200Z 09003KT 020V160 9999 FEW028 18/10 Q1015 NOSIG
VFR 18°C / 10°C variable 2kt >10km - Few Clouds 2800ft 1015 No Significant change LERI 051130Z VRB02KT 9999 FEW028 18/10 Q1015 NOSIG
VFR 18°C / 11°C variable 1kt >10km - Few Clouds 2700ft 1015 No Significant change LERI 051100Z VRB01KT 9999 FEW027 18/11 Q1015 NOSIG
VFR 16°C / 10°C variable 2kt >10km - Few Clouds 2500ft 1016 No Significant change LERI 051030Z VRB02KT 9999 FEW025 16/10 Q1016 NOSIG

MVFR

14°C / 12°C

[Daha fazla]
Rüzgar variable 0kt
Görünürlük >10km
Hava -
Bulutlar Few Clouds 1600ft
Broken Clouds 2100ft
Basınç 1016
Değiştir No Significant change
Ham LERI 061000Z 00000KT 9999 FEW016 BKN021 14/12 Q1016 NOSIG

VFR

13°C / 12°C

[Daha fazla]
Rüzgar variable 0kt
Görünürlük >10km
Hava -
Bulutlar Few Clouds 1600ft
Scattered Clouds 2100ft
Broken Clouds 3800ft
Basınç 1016
Değiştir No Significant change
Ham LERI 060930Z 00000KT 9999 FEW016 SCT021 BKN038 13/12 Q1016 NOSIG

VFR

13°C / 12°C

[Daha fazla]
Rüzgar variable 0kt
Görünürlük >10km
Hava -
Bulutlar Few Clouds 1700ft
Scattered Clouds 2200ft
Broken Clouds 4200ft
Basınç 1016
Değiştir No Significant change
Ham LERI 060900Z 00000KT 9999 FEW017 SCT022 BKN042 13/12 Q1016 NOSIG

VFR

13°C / 12°C

[Daha fazla]
Rüzgar 270º 1kt
Görünürlük 9000m
Hava Light Rain 1.00mm precipitation
Bulutlar Vertical Visibility of 0ft.
Scattered Clouds 4200ft
Broken Clouds 5000ft
Basınç 1015
Değiştir No Significant change
Ham LERI 060830Z 27001KT 9000 -RA FEW018 SCT042 BKN050 13/12 Q1015 NOSIG

VFR

12°C / 12°C

[Daha fazla]
Rüzgar 300º 2kt
Görünürlük 9000m
Hava Light Rain 1.00mm precipitation
Bulutlar Vertical Visibility of 0ft.
Broken Clouds 5000ft
Basınç 1015
Değiştir No Significant change
Ham LERI 060800Z 30002KT 9000 -RA FEW017 BKN050 12/12 Q1015 NOSIG

VFR

12°C / 11°C

[Daha fazla]
Rüzgar variable 0kt
Görünürlük 9000m
Hava Light Rain 1.00mm precipitation
Bulutlar Vertical Visibility of 0ft.
Scattered Clouds 2400ft
Broken Clouds 5500ft
Basınç 1015
Değiştir No Significant change
Ham LERI 060700Z 00000KT 9000 -RA FEW018 SCT024 BKN055 12/11 Q1015 NOSIG

MVFR

12°C / 11°C

[Daha fazla]
Rüzgar variable 2kt
Görünürlük 7000m
Hava Light Rain 1.00mm precipitation
Bulutlar Vertical Visibility of 0ft.
Scattered Clouds 6000ft
Basınç 1014
Değiştir No Significant change
Ham LERI 060630Z VRB02KT 7000 -RA FEW020 SCT060 12/11 Q1014 NOSIG

MVFR

12°C / 12°C

[Daha fazla]
Rüzgar variable 1kt
Görünürlük 7000m
Hava Rain 3.00mm precipitation
Bulutlar Vertical Visibility of 0ft.
Broken Clouds 6400ft
Basınç 1014
Değiştir No Significant change
Ham LERI 060600Z VRB01KT 7000 RA FEW020 BKN064 12/12 Q1014 NOSIG

VFR

13°C / 10°C

[Daha fazla]
Rüzgar variable 0kt
Görünürlük >10km
Hava -
Bulutlar Few Clouds 2000ft
Basınç 1014
Değiştir No Significant change
Ham LERI 051800Z 00000KT 9999 FEW020 13/10 Q1014 NOSIG

VFR

14°C / 11°C

[Daha fazla]
Rüzgar variable 0kt
Görünürlük >10km
Hava -
Bulutlar Few Clouds 2400ft
Basınç 1014
Değiştir No Significant change
Ham LERI 051730Z 00000KT 9999 FEW024 14/11 Q1014 NOSIG

VFR

15°C / 11°C

[Daha fazla]
Rüzgar 80º 5kt
Görünürlük >10km
Hava -
Bulutlar Few Clouds 2400ft
Basınç 1013
Değiştir No Significant change
Ham LERI 051700Z 08005KT 9999 FEW024 15/11 Q1013 NOSIG

VFR

17°C / 11°C

[Daha fazla]
Rüzgar 90º 8kt
Görünürlük >10km
Hava -
Bulutlar Few Clouds 2400ft
Basınç 1013
Değiştir No Significant change
Ham LERI 051630Z 09008KT 9999 FEW024 17/11 Q1013 NOSIG

VFR

17°C / 12°C

[Daha fazla]
Rüzgar 90º 8kt
Görünürlük >10km
Hava -
Bulutlar Few Clouds 2800ft
Basınç 1013
Değiştir No Significant change
Ham LERI 051600Z 09008KT 9999 FEW028 17/12 Q1013 NOSIG

VFR

18°C / 11°C

[Daha fazla]
Rüzgar 70º 8kt
Görünürlük >10km
Hava -
Bulutlar Few Clouds 2800ft
Basınç 1013
Değiştir No Significant change
Ham LERI 051530Z 07008KT 9999 FEW028 18/11 Q1013 NOSIG

VFR

18°C / 11°C

[Daha fazla]
Rüzgar 70º 11kt
Görünürlük >10km
Hava -
Bulutlar Few Clouds 3000ft
Basınç 1013
Değiştir No Significant change
Ham LERI 051500Z 07011KT 9999 FEW030 18/11 Q1013 NOSIG

VFR

18°C / 10°C

[Daha fazla]
Rüzgar 80º 10kt
Görünürlük >10km
Hava -
Bulutlar Few Clouds 3500ft
Basınç 1013
Değiştir No Significant change
Ham LERI 051430Z 08010KT 9999 FEW035 18/10 Q1013 NOSIG

VFR

19°C / 10°C

[Daha fazla]
Rüzgar 90º variable 060º to 130º 7kt
Görünürlük >10km
Hava -
Bulutlar Few Clouds 3500ft
Basınç 1013
Değiştir No Significant change
Ham LERI 051400Z 09007KT 060V130 9999 FEW035 19/10 Q1013 NOSIG

VFR

19°C / 10°C

[Daha fazla]
Rüzgar 80º variable 050º to 120º 7kt
Görünürlük >10km
Hava -
Bulutlar Few Clouds 3800ft
Basınç 1013
Değiştir No Significant change
Ham LERI 051330Z 08007KT 050V120 9999 FEW038 19/10 Q1013 NOSIG

VFR

19°C / 10°C

[Daha fazla]
Rüzgar 90º variable 060º to 120º 9kt
Görünürlük >10km
Hava -
Bulutlar Few Clouds 3500ft
Basınç 1013
Değiştir No Significant change
Ham LERI 051300Z 09009KT 060V120 9999 FEW035 19/10 Q1013 NOSIG

VFR

18°C / 10°C

[Daha fazla]
Rüzgar 90º variable 040º to 130º 4kt
Görünürlük >10km
Hava -
Bulutlar Few Clouds 3300ft
Basınç 1014
Değiştir No Significant change
Ham LERI 051230Z 09004KT 040V130 9999 FEW033 18/10 Q1014 NOSIG

VFR

18°C / 10°C

[Daha fazla]
Rüzgar 90º variable 020º to 160º 3kt
Görünürlük >10km
Hava -
Bulutlar Few Clouds 2800ft
Basınç 1015
Değiştir No Significant change
Ham LERI 051200Z 09003KT 020V160 9999 FEW028 18/10 Q1015 NOSIG

VFR

18°C / 10°C

[Daha fazla]
Rüzgar variable 2kt
Görünürlük >10km
Hava -
Bulutlar Few Clouds 2800ft
Basınç 1015
Değiştir No Significant change
Ham LERI 051130Z VRB02KT 9999 FEW028 18/10 Q1015 NOSIG

VFR

18°C / 11°C

[Daha fazla]
Rüzgar variable 1kt
Görünürlük >10km
Hava -
Bulutlar Few Clouds 2700ft
Basınç 1015
Değiştir No Significant change
Ham LERI 051100Z VRB01KT 9999 FEW027 18/11 Q1015 NOSIG

VFR

16°C / 10°C

[Daha fazla]
Rüzgar variable 2kt
Görünürlük >10km
Hava -
Bulutlar Few Clouds 2500ft
Basınç 1016
Değiştir No Significant change
Ham LERI 051030Z VRB02KT 9999 FEW025 16/10 Q1016 NOSIG

Alcantarilla (LERI) için TAF

From till


Maximum Temperature 19ºC on . Minimum Temperature 11ºC on .
From till Wind variable 3kt. Visibility 10km or more. Scattered Clouds 2000ft.

Ham: TAF LERI 060500Z 0606/0706 VRB03KT 9999 SCT020 TX19/0614Z TN11/0606Z

Alcantarilla için Radar

Çise
Hafif
Orta
Ağır
Çok ağır
Dolu

Konum işaretleyicisi Alcantarilla üzerine yerleştirilir. Bu animasyon son 1 saat içerisindeki yağış radarını gösterir. Hafif yağmur veya kar yağışı radar için görünmez olabilir. Yağış şiddeti açık mavi ile koyu mor arasındaki renklerle kodlanmıştır.
Radar veri kaynağı: AEMET.

Alcantarilla için şu anki uydu ve yağmur görüntüleri, İspanya

Konum işaretleyici Alcantarilla üzerine yerleştirilir. [Daha fazla]

Gerçek zamanlı uydu görüntüsü gündüz süresince görülür ışığı gece süresince kızılötesi ışınım ile birleştirir. Gece kızılötesi ışınım sıcaklık farklarını algılayabildiğinden dolayı görüntü karanlık değildir. Ancak düşük bulutları ve sisi yer sıcaklığından ayırmak zordur ve bu nedenle gece boyunca neredeyse görünmez olabilirler. Avrupa için Meteosat uydu görüntüleri gerçek zamanlı olarak her 5 dakikada bir güncellenir. GOES-16/GOES-17 (Kuzey ve Güney Amerika) ve Himawari (Asya) görüntüleri her 10 dakikada bir güncellenir.

Yağış radar ve uydulardan tahmin edilir. Uydulardan elde edilen yağış tahminleri geceleri gündüze göre daha az doğrudur. Turuncu çarpılar şimşeklerin saptandığı yerleri gösterir (Avrupa üzeri).

Copyright 2022 EUMETSAT / meteoblue. nowcast tarafından sağlanan şimşek verileri.

En başa git